createdAt,value
2022-09-03T00:00:11.238Z,53.48
2022-09-03T00:02:45.856Z,53.65
2022-09-03T00:05:21.203Z,53.21
2022-09-03T00:07:56.339Z,53.86
2022-09-03T00:10:32.865Z,53.90
2022-09-03T00:13:04.300Z,54.19
2022-09-03T00:15:37.813Z,54.00
2022-09-03T00:18:08.005Z,54.86
2022-09-03T00:20:41.622Z,54.80
2022-09-03T00:23:12.323Z,54.36
2022-09-03T00:25:44.688Z,54.95
2022-09-03T00:28:15.860Z,55.06
2022-09-03T00:30:48.710Z,55.01
2022-09-03T00:33:22.609Z,55.58
2022-09-03T00:35:56.028Z,55.82
2022-09-03T00:38:24.544Z,55.74
2022-09-03T00:41:06.956Z,55.28
2022-09-03T00:43:48.300Z,56.05
2022-09-03T00:46:24.525Z,55.88
2022-09-03T00:49:20.285Z,55.36
2022-09-03T00:51:56.073Z,55.44
2022-09-03T00:54:30.511Z,55.49
2022-09-03T00:57:11.675Z,56.00
2022-09-03T00:59:46.986Z,56.09
2022-09-03T01:02:22.462Z,56.14
2022-09-03T01:05:01.516Z,56.43
2022-09-03T01:07:35.165Z,56.14
2022-09-03T01:10:14.754Z,55.83
2022-09-03T01:12:52.743Z,56.30
2022-09-03T01:15:25.594Z,56.28
2022-09-03T01:18:04.084Z,56.57
2022-09-03T01:20:42.631Z,56.09
2022-09-03T01:23:59.289Z,56.29
2022-09-03T01:26:40.627Z,57.35
2022-09-03T01:29:18.456Z,57.23
2022-09-03T01:31:51.991Z,57.47
2022-09-03T01:34:33.461Z,57.02
2022-09-03T01:37:09.137Z,57.31
2022-09-03T01:39:48.050Z,57.28
2022-09-03T01:42:23.137Z,57.39
2022-09-03T01:45:09.009Z,57.60
2022-09-03T01:47:48.086Z,57.70
2022-09-03T01:50:37.854Z,57.83
2022-09-03T01:53:11.488Z,57.96
2022-09-03T01:55:48.314Z,57.88
2022-09-03T01:58:21.363Z,58.04
2022-09-03T02:00:58.214Z,57.75
2022-09-03T02:03:28.902Z,58.56
2022-09-03T02:05:58.677Z,58.61
2022-09-03T02:08:26.856Z,58.48
2022-09-03T02:11:01.986Z,58.40
2022-09-03T02:13:34.806Z,59.16
2022-09-03T02:16:13.227Z,58.80
2022-09-03T02:18:43.199Z,59.07
2022-09-03T02:21:12.964Z,58.62
2022-09-03T02:23:42.334Z,60.02
2022-09-03T02:26:13.499Z,59.24
2022-09-03T02:28:42.182Z,60.25
2022-09-03T02:31:12.606Z,59.97
2022-09-03T02:33:46.826Z,60.95
2022-09-03T02:36:17.001Z,60.42
2022-09-03T02:38:46.886Z,61.45
2022-09-03T02:41:16.177Z,60.74
2022-09-03T02:43:49.404Z,60.12
2022-09-03T02:46:24.467Z,61.00
2022-09-03T02:48:54.481Z,61.79
2022-09-03T02:51:23.130Z,61.81
2022-09-03T02:53:53.454Z,61.74
2022-09-03T02:56:26.991Z,61.70
2022-09-03T02:58:56.250Z,61.43
2022-09-03T03:01:26.629Z,61.65
2022-09-03T03:03:56.458Z,61.03
2022-09-03T03:06:25.079Z,61.79
2022-09-03T03:08:57.156Z,61.70
2022-09-03T03:11:27.394Z,61.90
2022-09-03T03:13:56.929Z,62.74
2022-09-03T03:16:27.545Z,62.36
2022-09-03T03:18:57.482Z,63.08
2022-09-03T03:21:26.008Z,63.12
2022-09-03T03:23:55.322Z,62.88
2022-09-03T03:26:24.396Z,62.84
2022-09-03T03:28:58.631Z,62.77
2022-09-03T03:31:29.529Z,62.97
2022-09-03T03:34:00.135Z,63.72
2022-09-03T03:36:32.247Z,63.96
2022-09-03T03:39:02.329Z,64.19
2022-09-03T03:41:35.252Z,63.45
2022-09-03T03:44:05.675Z,63.78
2022-09-03T03:46:38.668Z,63.46
2022-09-03T03:49:07.645Z,63.09
2022-09-03T03:51:38.082Z,64.10
2022-09-03T03:54:07.484Z,64.11
2022-09-03T03:56:36.917Z,64.31
2022-09-03T03:59:05.924Z,64.28
2022-09-03T04:01:36.943Z,64.06
2022-09-03T04:04:06.549Z,64.57
2022-09-03T04:06:36.153Z,64.17
2022-09-03T04:09:05.154Z,64.45
2022-09-03T04:11:35.988Z,64.64
2022-09-03T04:14:05.287Z,64.92
2022-09-03T04:16:34.239Z,65.82
2022-09-03T04:19:03.902Z,64.77
2022-09-03T04:21:32.275Z,64.20
2022-09-03T04:24:01.165Z,64.93
2022-09-03T04:26:32.197Z,64.88
2022-09-03T04:29:02.432Z,64.20
2022-09-03T04:31:32.399Z,64.90
2022-09-03T04:34:01.291Z,65.43
2022-09-03T04:36:33.565Z,65.04
2022-09-03T04:39:02.868Z,64.55
2022-09-03T04:41:35.225Z,65.35
2022-09-03T04:44:04.426Z,66.00
2022-09-03T04:46:34.213Z,65.51
2022-09-03T04:49:03.531Z,65.24
2022-09-03T04:51:39.230Z,65.42
2022-09-03T04:54:10.070Z,65.22
2022-09-03T04:56:40.700Z,65.72
2022-09-03T04:59:10.283Z,65.90
2022-09-03T05:01:41.000Z,65.24
2022-09-03T05:04:09.674Z,65.59
2022-09-03T05:06:40.457Z,65.25
2022-09-03T05:09:09.765Z,65.73
2022-09-03T05:11:39.363Z,65.17
2022-09-03T05:14:12.000Z,65.37
2022-09-03T05:16:41.376Z,65.90
2022-09-03T05:19:09.735Z,66.29
2022-09-03T05:21:41.541Z,64.95
2022-09-03T05:24:11.556Z,66.01
2022-09-03T05:26:42.049Z,66.14
2022-09-03T05:29:10.430Z,66.15
2022-09-03T05:31:40.853Z,65.42
2022-09-03T05:34:16.433Z,65.17
2022-09-03T05:36:49.972Z,64.99
2022-09-03T05:39:19.530Z,65.31
2022-09-03T05:41:52.400Z,65.23
2022-09-03T05:44:23.297Z,66.08
2022-09-03T05:46:55.204Z,65.47
2022-09-03T05:49:25.009Z,65.30
2022-09-03T05:51:54.666Z,66.15
2022-09-03T05:54:24.008Z,65.19
2022-09-03T05:56:52.300Z,66.79
2022-09-03T05:59:22.009Z,66.47
2022-09-03T06:01:53.740Z,65.83
2022-09-03T06:04:26.214Z,65.33
2022-09-03T06:06:57.451Z,65.75
2022-09-03T06:09:26.877Z,66.04
2022-09-03T06:11:57.301Z,65.72
2022-09-03T06:14:28.193Z,65.02
2022-09-03T06:16:57.405Z,64.79
2022-09-03T06:19:25.601Z,65.68
2022-09-03T06:21:55.540Z,65.58
2022-09-03T06:24:28.139Z,64.54
2022-09-03T06:26:57.692Z,65.47
2022-09-03T06:29:27.775Z,65.89
2022-09-03T06:31:56.889Z,65.92
2022-09-03T06:34:27.297Z,65.50
2022-09-03T06:36:56.338Z,65.63
2022-09-03T06:39:27.416Z,65.61
2022-09-03T06:41:56.342Z,65.54
2022-09-03T06:44:41.953Z,65.48
2022-09-03T06:47:10.291Z,65.71
2022-09-03T06:49:39.612Z,65.06
2022-09-03T06:52:09.368Z,64.60
2022-09-03T06:54:40.850Z,64.12
2022-09-03T06:57:10.529Z,64.56
2022-09-03T06:59:40.068Z,65.04
2022-09-03T07:02:08.941Z,64.31
2022-09-03T07:04:38.570Z,64.12
2022-09-03T07:07:13.350Z,64.64
2022-09-03T07:09:48.118Z,63.89
2022-09-03T07:12:19.370Z,63.83
2022-09-03T07:14:48.731Z,63.77
2022-09-03T07:17:20.462Z,63.88
2022-09-03T07:19:49.417Z,63.27
2022-09-03T07:22:18.993Z,63.06
2022-09-03T07:24:48.796Z,62.91
2022-09-03T07:27:18.832Z,63.14
2022-09-03T07:29:47.352Z,63.17
2022-09-03T07:32:16.946Z,63.59
2022-09-03T07:34:45.343Z,63.60
2022-09-03T07:37:14.398Z,62.91
2022-09-03T07:39:44.110Z,63.22
2022-09-03T07:42:13.858Z,62.30
2022-09-03T07:44:43.192Z,62.59
2022-09-03T07:47:11.584Z,61.57
2022-09-03T07:49:41.004Z,62.48
2022-09-03T07:52:11.996Z,61.60
2022-09-03T07:54:44.691Z,61.99
2022-09-03T07:57:15.023Z,61.04
2022-09-03T07:59:44.249Z,62.11
2022-09-03T08:02:12.392Z,61.61
2022-09-03T08:04:43.558Z,61.92
2022-09-03T08:07:12.489Z,62.11
2022-09-03T08:09:41.947Z,61.75
2022-09-03T08:12:10.438Z,61.92
2022-09-03T08:14:41.392Z,61.46
2022-09-03T08:17:12.781Z,61.38
2022-09-03T08:19:43.750Z,60.99
2022-09-03T08:22:12.371Z,60.75
2022-09-03T08:24:43.052Z,60.47
2022-09-03T08:27:11.440Z,60.18
2022-09-03T08:29:42.353Z,60.05
2022-09-03T08:32:12.073Z,59.67
2022-09-03T08:34:42.627Z,59.06
2022-09-03T08:37:12.686Z,58.79
2022-09-03T08:39:51.095Z,58.09
2022-09-03T08:42:40.094Z,57.43
2022-09-03T08:45:11.889Z,57.67
2022-09-03T08:47:43.817Z,56.98
2022-09-03T08:50:18.299Z,56.54
2022-09-03T08:52:49.308Z,56.35
2022-09-03T08:55:23.499Z,55.84
2022-09-03T08:57:52.956Z,55.77
2022-09-03T09:00:22.881Z,55.21
2022-09-03T09:03:00.501Z,54.98
2022-09-03T09:05:44.026Z,54.62
2022-09-03T09:08:22.803Z,54.29
2022-09-03T09:10:59.096Z,53.80
2022-09-03T09:13:30.965Z,53.46
2022-09-03T09:16:07.378Z,53.20
2022-09-03T09:18:55.218Z,52.94
2022-09-03T09:21:29.726Z,52.88
2022-09-03T09:24:05.278Z,52.94
2022-09-03T09:26:35.643Z,52.51
2022-09-03T09:29:10.052Z,52.75
2022-09-03T09:31:44.775Z,51.79
2022-09-03T09:34:14.640Z,51.63
2022-09-03T09:36:45.503Z,51.08
2022-09-03T09:39:16.872Z,50.96
2022-09-03T09:41:56.109Z,50.79
2022-09-03T09:44:28.153Z,50.43
2022-09-03T09:47:07.951Z,49.66
2022-09-03T09:49:39.115Z,49.83
2022-09-03T09:52:12.043Z,49.35
2022-09-03T09:54:45.677Z,49.58
2022-09-03T09:57:18.322Z,49.13
2022-09-03T09:59:50.860Z,49.43
2022-09-03T10:02:27.925Z,48.38
2022-09-03T10:05:00.250Z,48.47
2022-09-03T10:07:39.951Z,49.27
2022-09-03T10:10:19.372Z,49.40
2022-09-03T10:12:52.058Z,49.61
2022-09-03T10:15:25.221Z,48.83
2022-09-03T10:18:10.046Z,48.52
2022-09-03T10:20:47.330Z,48.08
2022-09-03T10:23:22.846Z,47.72
2022-09-03T10:26:05.171Z,47.91
2022-09-03T10:28:39.486Z,47.46
2022-09-03T10:31:33.077Z,47.16
2022-09-03T10:34:07.914Z,47.54
2022-09-03T10:36:44.967Z,46.82
2022-09-03T10:39:17.822Z,46.74
2022-09-03T10:42:02.776Z,46.35
2022-09-03T10:44:44.219Z,45.58
2022-09-03T10:47:24.103Z,45.53
2022-09-03T10:49:59.263Z,45.67
2022-09-03T10:52:31.057Z,45.86
2022-09-03T10:55:14.078Z,45.51
2022-09-03T10:57:48.291Z,45.64
2022-09-03T11:00:24.862Z,45.84
2022-09-03T11:03:30.108Z,45.53
2022-09-03T11:06:06.421Z,45.37
2022-09-03T11:08:38.642Z,44.68
2022-09-03T11:11:16.728Z,44.62
2022-09-03T11:13:49.065Z,43.83
2022-09-03T11:16:20.760Z,43.39
2022-09-03T11:18:52.647Z,43.24
2022-09-03T11:21:27.520Z,42.70
2022-09-03T11:24:07.230Z,42.38
2022-09-03T11:26:36.326Z,43.08
2022-09-03T11:29:11.090Z,42.09
2022-09-03T11:31:48.274Z,42.43
2022-09-03T11:34:32.625Z,42.34
2022-09-03T11:37:19.929Z,41.98
2022-09-03T11:40:00.816Z,41.30
2022-09-03T11:42:33.709Z,41.62
2022-09-03T11:45:16.303Z,40.86
2022-09-03T11:47:47.118Z,40.70
2022-09-03T11:50:22.691Z,40.17
2022-09-03T11:52:54.592Z,40.58
2022-09-03T11:55:37.624Z,40.39
2022-09-03T11:58:14.219Z,39.98
2022-09-03T12:00:45.476Z,39.52
2022-09-03T12:03:18.110Z,39.57
2022-09-03T12:05:53.964Z,39.28
2022-09-03T12:08:50.048Z,38.91
2022-09-03T12:11:34.741Z,38.70
2022-09-03T12:14:13.861Z,38.43
2022-09-03T12:17:08.268Z,38.32
2022-09-03T12:19:41.882Z,38.22
2022-09-03T12:22:15.184Z,37.92
2022-09-03T12:24:46.445Z,37.81
2022-09-03T12:27:18.244Z,37.72
2022-09-03T12:30:00.151Z,38.03
2022-09-03T12:32:37.308Z,38.10
2022-09-03T12:35:57.739Z,38.10
2022-09-03T12:38:06.953Z,38.10
2022-09-03T12:43:49.974Z,37.32
2022-09-03T12:46:18.843Z,37.21
2022-09-03T12:51:52.099Z,36.13
2022-09-03T12:54:24.404Z,36.36
2022-09-03T12:56:56.897Z,36.53
2022-09-03T12:59:27.933Z,36.52
2022-09-03T13:01:59.799Z,35.98
2022-09-03T13:04:33.402Z,35.44
2022-09-03T13:07:04.663Z,35.91
2022-09-03T13:09:38.102Z,35.92
2022-09-03T13:12:08.949Z,35.86
2022-09-03T13:14:47.387Z,35.43
2022-09-03T13:17:47.674Z,34.65
2022-09-03T13:20:34.556Z,34.47
2022-09-03T13:23:11.997Z,34.84
2022-09-03T13:25:52.553Z,34.88
2022-09-03T13:28:33.963Z,34.58
2022-09-03T13:31:07.848Z,34.75
2022-09-03T13:33:42.053Z,35.40
2022-09-03T13:36:16.252Z,35.21
2022-09-03T13:38:51.098Z,35.13
2022-09-03T13:41:36.502Z,36.09
2022-09-03T13:44:16.018Z,35.68
2022-09-03T13:46:49.781Z,35.53
2022-09-03T13:49:47.295Z,36.07
2022-09-03T13:52:22.558Z,36.05
2022-09-03T13:54:55.832Z,36.34
2022-09-03T13:57:35.346Z,36.83
2022-09-03T14:00:08.563Z,37.00
2022-09-03T14:02:48.563Z,37.09
2022-09-03T14:05:21.337Z,37.62
2022-09-03T14:07:55.946Z,37.82
2022-09-03T14:10:32.240Z,38.10
2022-09-03T14:13:12.705Z,37.76
2022-09-03T14:15:49.638Z,37.50
2022-09-03T14:18:31.908Z,37.28
2022-09-03T14:21:04.888Z,37.38
2022-09-03T14:23:42.431Z,37.32
2022-09-03T14:26:18.292Z,37.24
2022-09-03T14:28:50.693Z,37.22
2022-09-03T14:31:28.276Z,37.58
2022-09-03T14:34:06.083Z,37.87
2022-09-03T14:36:40.650Z,37.94
2022-09-03T14:39:32.630Z,38.17
2022-09-03T14:42:30.533Z,37.72
2022-09-03T14:45:17.361Z,37.93
2022-09-03T14:48:00.220Z,37.95
2022-09-03T14:50:42.306Z,37.62
2022-09-03T14:53:26.678Z,37.31
2022-09-03T14:56:09.890Z,37.71
2022-09-03T14:58:50.597Z,38.26
2022-09-03T15:01:27.279Z,38.34
2022-09-03T15:04:32.772Z,38.27
2022-09-03T15:07:14.487Z,38.20
2022-09-03T15:09:48.188Z,38.05
2022-09-03T15:12:21.024Z,37.82
2022-09-03T15:14:55.282Z,37.83
2022-09-03T15:17:45.127Z,38.76
2022-09-03T15:20:23.875Z,38.57
2022-09-03T15:23:13.370Z,38.36
2022-09-03T15:26:23.113Z,38.13
2022-09-03T15:29:03.043Z,37.24
2022-09-03T15:31:45.321Z,37.57
2022-09-03T15:34:21.339Z,37.69
2022-09-03T15:36:53.886Z,37.62
2022-09-03T15:39:25.310Z,37.48
2022-09-03T15:41:58.542Z,37.84
2022-09-03T15:44:28.625Z,38.91
2022-09-03T15:47:00.671Z,39.80
2022-09-03T15:49:38.413Z,39.82
2022-09-03T15:52:24.939Z,39.11
2022-09-03T15:54:59.939Z,37.75
2022-09-03T15:57:30.684Z,36.33
2022-09-03T16:00:04.243Z,36.38
2022-09-03T16:02:47.480Z,36.08
2022-09-03T16:05:19.747Z,35.81
2022-09-03T16:08:09.570Z,34.92
2022-09-03T16:10:46.333Z,35.94
2022-09-03T16:13:34.788Z,37.07
2022-09-03T16:16:04.697Z,37.32
2022-09-03T16:18:37.090Z,37.15
2022-09-03T16:21:10.012Z,36.95
2022-09-03T16:23:43.378Z,36.28
2022-09-03T16:26:16.151Z,36.56
2022-09-03T16:28:50.358Z,36.76
2022-09-03T16:31:27.962Z,37.44
2022-09-03T16:34:03.451Z,37.98
2022-09-03T16:36:40.898Z,38.60
2022-09-03T16:39:18.085Z,40.11
2022-09-03T16:41:54.186Z,40.41
2022-09-03T16:44:28.834Z,40.89
2022-09-03T16:47:02.917Z,41.74
2022-09-03T16:49:44.335Z,41.80
2022-09-03T16:52:20.484Z,42.78
2022-09-03T16:55:04.366Z,43.30
2022-09-03T16:57:46.074Z,43.46
2022-09-03T17:00:15.942Z,43.67
2022-09-03T17:03:25.061Z,43.67
2022-09-03T17:06:23.002Z,44.42
2022-09-03T17:09:00.023Z,45.19
2022-09-03T17:11:43.136Z,45.24
2022-09-03T17:14:23.545Z,44.94
2022-09-03T17:17:00.201Z,45.01
2022-09-03T17:19:36.023Z,45.52
2022-09-03T17:22:13.107Z,45.37
2022-09-03T17:24:48.011Z,45.82
2022-09-03T17:27:42.047Z,45.92
2022-09-03T17:30:16.971Z,46.08
2022-09-03T17:33:06.600Z,46.12
2022-09-03T17:35:39.717Z,46.25
2022-09-03T17:38:19.165Z,46.38
2022-09-03T17:40:58.583Z,46.47
2022-09-03T17:43:36.477Z,46.54
2022-09-03T17:46:14.548Z,46.37
2022-09-03T17:48:51.401Z,46.44
2022-09-03T17:51:31.638Z,46.98
2022-09-03T17:54:07.167Z,46.82
2022-09-03T17:56:44.914Z,47.14
2022-09-03T17:59:22.677Z,46.85
2022-09-03T18:01:56.074Z,46.76
2022-09-03T18:04:35.908Z,47.02
2022-09-03T18:07:12.388Z,47.38
2022-09-03T18:09:47.732Z,47.50
2022-09-03T18:12:32.482Z,48.00
2022-09-03T18:15:08.999Z,47.99
2022-09-03T18:17:43.182Z,48.45
2022-09-03T18:20:31.901Z,48.36
2022-09-03T18:23:21.763Z,48.43
2022-09-03T18:26:10.706Z,48.73
2022-09-03T18:28:59.588Z,48.88
2022-09-03T18:31:49.397Z,48.75
2022-09-03T18:34:37.652Z,49.22
2022-09-03T18:37:24.998Z,48.81
2022-09-03T18:40:11.230Z,49.29
2022-09-03T18:43:07.102Z,49.80
2022-09-03T18:49:14.577Z,50.00
2022-09-03T18:52:05.338Z,50.82
2022-09-03T18:55:07.745Z,50.80
2022-09-03T18:58:02.196Z,51.04
2022-09-03T19:00:54.194Z,51.02
2022-09-03T19:03:54.827Z,51.06
2022-09-03T19:06:52.500Z,50.76
2022-09-03T19:09:50.713Z,51.26
2022-09-03T19:12:58.923Z,51.73
2022-09-03T19:15:49.070Z,52.28
2022-09-03T19:18:44.880Z,52.36
2022-09-03T19:21:39.702Z,53.06
2022-09-03T19:24:28.296Z,52.76
2022-09-03T19:27:51.829Z,52.46
2022-09-03T19:30:37.719Z,52.76
2022-09-03T19:33:30.944Z,52.80
2022-09-03T19:36:26.568Z,53.06
2022-09-03T19:39:25.407Z,53.58
2022-09-03T19:42:20.857Z,53.14
2022-09-03T19:45:18.252Z,53.11
2022-09-03T19:48:21.002Z,53.37
2022-09-03T19:51:19.712Z,53.64
2022-09-03T19:54:07.684Z,53.83
2022-09-03T19:56:55.804Z,54.07
2022-09-03T19:59:46.818Z,54.57
2022-09-03T20:02:33.562Z,54.34
2022-09-03T20:05:22.595Z,54.31
2022-09-03T20:08:10.983Z,54.52
2022-09-03T20:10:42.685Z,54.43
2022-09-03T20:13:15.033Z,54.54
2022-09-03T20:15:53.705Z,54.44
2022-09-03T20:18:34.091Z,54.62
2022-09-03T20:21:10.971Z,54.71
2022-09-03T20:23:48.253Z,54.85
2022-09-03T20:26:28.803Z,54.63
2022-09-03T20:29:35.285Z,55.08
2022-09-03T20:32:11.715Z,54.67
2022-09-03T20:34:48.678Z,54.88
2022-09-03T20:37:27.772Z,55.16
2022-09-03T20:40:09.928Z,54.95
2022-09-03T20:42:50.136Z,55.16
2022-09-03T20:45:21.621Z,55.10
2022-09-03T20:48:09.976Z,54.74
2022-09-03T20:50:48.645Z,55.00
2022-09-03T20:53:28.227Z,54.93
2022-09-03T20:56:03.687Z,55.43
2022-09-03T20:58:38.442Z,55.54
2022-09-03T21:01:10.151Z,55.45
2022-09-03T21:03:46.864Z,54.91
2022-09-03T21:06:25.493Z,55.47
2022-09-03T21:09:05.039Z,55.62
2022-09-03T21:11:39.589Z,56.21
2022-09-03T21:14:20.626Z,56.40
2022-09-03T21:17:00.270Z,56.24
2022-09-03T21:19:45.115Z,56.42
2022-09-03T21:22:22.990Z,56.66
2022-09-03T21:24:54.965Z,56.77
2022-09-03T21:27:25.843Z,57.03
2022-09-03T21:30:02.064Z,56.82
2022-09-03T21:32:36.765Z,57.37
2022-09-03T21:35:14.875Z,57.45
2022-09-03T21:37:49.469Z,57.63
2022-09-03T21:40:24.200Z,57.69
2022-09-03T21:42:59.885Z,57.48
2022-09-03T21:45:35.855Z,58.29
2022-09-03T21:48:07.783Z,58.18
2022-09-03T21:50:47.629Z,57.75
2022-09-03T21:53:25.689Z,57.51
2022-09-03T21:56:14.351Z,57.74
2022-09-03T21:58:54.584Z,57.92
2022-09-03T22:01:29.469Z,58.26
2022-09-03T22:03:59.729Z,58.27
2022-09-03T22:06:41.905Z,57.73
2022-09-03T22:09:15.241Z,58.22
2022-09-03T22:11:52.282Z,57.88
2022-09-03T22:14:23.603Z,58.72
2022-09-03T22:16:57.167Z,58.89
2022-09-03T22:19:37.666Z,58.57
2022-09-03T22:22:17.425Z,58.70
2022-09-03T22:24:51.119Z,59.15
2022-09-03T22:27:26.422Z,59.00
2022-09-03T22:30:03.808Z,60.38
2022-09-03T22:32:45.386Z,60.43
2022-09-03T22:35:36.572Z,60.15
2022-09-03T22:38:19.531Z,60.35
2022-09-03T22:40:52.486Z,61.04
2022-09-03T22:43:37.030Z,61.60
2022-09-03T22:46:09.026Z,62.17
2022-09-03T22:48:53.489Z,62.21
2022-09-03T22:51:22.136Z,62.82
2022-09-03T22:54:07.703Z,63.43
2022-09-03T22:56:39.662Z,63.88
2022-09-03T22:59:13.740Z,64.39
2022-09-03T23:01:44.941Z,65.21
2022-09-03T23:04:19.204Z,65.10
2022-09-03T23:06:53.397Z,65.30
2022-09-03T23:09:27.238Z,65.92
2022-09-03T23:11:58.890Z,66.12
2022-09-03T23:14:32.382Z,66.24
2022-09-03T23:17:07.534Z,66.62
2022-09-03T23:19:41.766Z,67.43
2022-09-03T23:22:13.607Z,67.43
2022-09-03T23:24:49.351Z,67.80
2022-09-03T23:27:20.032Z,67.97
2022-09-03T23:29:52.507Z,68.49
2022-09-03T23:32:20.702Z,69.47
2022-09-03T23:34:50.373Z,70.84
2022-09-03T23:37:34.171Z,71.35
2022-09-03T23:40:15.429Z,70.45
2022-09-03T23:42:54.967Z,71.35
2022-09-03T23:45:30.720Z,71.67
2022-09-03T23:48:04.935Z,71.97
2022-09-03T23:50:37.558Z,72.05
2022-09-03T23:53:26.288Z,71.78
2022-09-03T23:56:11.957Z,71.14
2022-09-03T23:58:53.576Z,72.37
